Time;durP1;ratioP1;P1;durP2;ratioP2;P2;SDS_P1;SDS_P2;PMS_P1;PMS_P2;Temp;Humidity;BMP_temperature;BMP_pressure;BME280_temperature;BME280_humidity;BME280_pressure;Samples;Min_cycle;Max_cycle;Signal;HPM_P1;HPM_P2
2021/11/22 00:00:20;;;;;;;12.07;4.38;;;4.30;91.30;;;;;;5029498;28;20488;-79
2021/11/22 00:02:47;;;;;;;10.75;4.55;;;4.20;91.30;;;;;;5029521;28;20048;-77
2021/11/22 00:05:13;;;;;;;11.18;4.82;;;4.20;91.30;;;;;;5030912;28;20021;-77
2021/11/22 00:07:39;;;;;;;18.85;4.78;;;4.20;91.40;;;;;;5029713;28;20539;-77
2021/11/22 00:10:05;;;;;;;15.68;4.93;;;4.20;91.40;;;;;;5029657;28;20113;-74
2021/11/22 00:12:33;;;;;;;11.32;4.90;;;4.20;91.50;;;;;;5029554;28;20029;-78
2021/11/22 00:15:04;;;;;;;11.45;4.78;;;4.20;91.60;;;;;;5033339;28;20124;-77
2021/11/22 00:17:31;;;;;;;13.25;5.05;;;4.20;91.60;;;;;;5034936;28;20025;-77
2021/11/22 00:19:58;;;;;;;11.02;4.40;;;4.10;91.60;;;;;;5033523;28;20407;-78
2021/11/22 00:22:25;;;;;;;10.45;4.45;;;4.10;91.70;;;;;;5033321;28;20094;-77
2021/11/22 00:24:51;;;;;;;15.45;5.47;;;4.10;91.80;;;;;;5034780;28;20028;-77
2021/11/22 00:27:17;;;;;;;14.70;5.90;;;4.10;91.80;;;;;;5034896;28;20510;-76
2021/11/22 00:29:42;;;;;;;17.38;6.38;;;4.10;91.90;;;;;;5017183;28;20033;-77
2021/11/22 00:32:08;;;;;;;19.63;5.85;;;4.10;91.80;;;;;;5034559;28;20041;-77
2021/11/22 00:34:41;;;;;;;12.45;4.22;;;4.10;91.80;;;;;;5034749;28;20029;-78
2021/11/22 00:37:12;;;;;;;18.88;5.85;;;4.10;91.70;;;;;;5033681;28;20039;-77
2021/11/22 00:39:38;;;;;;;13.70;6.10;;;4.00;91.70;;;;;;5033425;28;20025;-78
2021/11/22 00:42:07;;;;;;;18.70;7.22;;;4.00;91.70;;;;;;5034435;28;20033;-76
2021/11/22 00:44:33;;;;;;;22.55;9.23;;;4.00;91.70;;;;;;5033100;28;20025;-76
2021/11/22 00:46:59;;;;;;;26.70;9.95;;;3.90;91.70;;;;;;5034443;28;20043;-77
2021/11/22 00:49:25;;;;;;;26.05;9.20;;;4.00;91.80;;;;;;5033112;28;20035;-76
2021/11/22 00:51:50;;;;;;;23.95;9.00;;;3.90;91.80;;;;;;5033000;28;20033;-76
2021/11/22 00:54:16;;;;;;;28.05;9.63;;;3.90;91.90;;;;;;5034253;28;20133;-78
2021/11/22 00:56:42;;;;;;;22.60;7.60;;;3.90;91.90;;;;;;5016518;28;20040;-78
2021/11/22 00:59:07;;;;;;;27.88;9.45;;;3.90;92.00;;;;;;5033968;28;20444;-78
2021/11/22 01:01:35;;;;;;;19.95;7.03;;;4.00;92.00;;;;;;5034485;28;20041;-77
2021/11/22 01:04:01;;;;;;;14.00;5.40;;;3.90;92.00;;;;;;5016641;28;20036;-78
2021/11/22 01:06:27;;;;;;;15.15;5.38;;;3.90;91.90;;;;;;5016251;28;20029;-78
2021/11/22 01:08:52;;;;;;;15.40;5.53;;;3.90;91.90;;;;;;5034045;28;20387;-77
2021/11/22 01:11:18;;;;;;;14.90;5.35;;;3.80;91.80;;;;;;5016317;28;20087;-78
2021/11/22 01:13:44;;;;;;;14.00;5.47;;;3.70;91.80;;;;;;5032777;28;20069;-79
2021/11/22 01:16:10;;;;;;;12.95;5.95;;;3.70;91.90;;;;;;5016047;28;20040;-77
2021/11/22 01:18:36;;;;;;;10.73;5.20;;;3.60;91.90;;;;;;5032553;28;20064;-78
2021/11/22 01:21:02;;;;;;;12.93;5.35;;;3.60;91.90;;;;;;5032411;28;20033;-78
2021/11/22 01:23:27;;;;;;;15.68;5.65;;;3.60;92.00;;;;;;5032418;28;20511;-77
2021/11/22 01:25:53;;;;;;;18.02;5.85;;;3.50;92.00;;;;;;5032188;28;20045;-78
2021/11/22 01:28:19;;;;;;;12.93;4.85;;;3.50;92.10;;;;;;5032372;28;20053;-78
2021/11/22 01:30:45;;;;;;;14.50;6.22;;;3.40;92.10;;;;;;4999653;28;20117;-78
2021/11/22 01:33:13;;;;;;;13.40;5.05;;;3.30;92.30;;;;;;5033603;28;20112;-78
2021/11/22 01:35:41;;;;;;;17.25;5.70;;;3.30;92.50;;;;;;5032201;28;20091;-78
2021/11/22 01:38:07;;;;;;;15.30;5.68;;;3.30;92.60;;;;;;5015638;28;20474;-77
2021/11/22 01:40:33;;;;;;;11.85;6.38;;;3.30;92.60;;;;;;5032281;28;20021;-77
2021/11/22 01:42:59;;;;;;;16.13;4.38;;;3.40;92.60;;;;;;5033159;28;20040;-78
2021/11/22 01:45:25;;;;;;;15.07;5.03;;;3.40;92.50;;;;;;5033243;28;20026;-77
2021/11/22 01:47:51;;;;;;;;;;;3.40;92.50;;;;;;5033824;28;20044;-77
2021/11/22 01:50:20;;;;;;;16.10;5.20;;;3.40;92.50;;;;;;5033180;28;19909;-76
2021/11/22 01:52:48;;;;;;;13.25;5.40;;;3.40;92.40;;;;;;5031867;28;20112;-77
2021/11/22 01:55:17;;;;;;;16.60;5.80;;;3.40;92.30;;;;;;5033243;28;20022;-77
2021/11/22 01:57:45;;;;;;;17.02;6.38;;;3.40;92.40;;;;;;5033213;28;20105;-78
2021/11/22 02:00:17;;;;;;;15.68;6.45;;;3.30;92.50;;;;;;5015489;28;20045;-77
2021/11/22 02:02:43;;;;;;;13.57;5.32;;;3.20;92.70;;;;;;5031691;28;20377;-77
2021/11/22 02:05:09;;;;;;;13.23;6.40;;;3.20;92.90;;;;;;5033024;28;20494;-78
2021/11/22 02:07:35;;;;;;;;;;;3.30;92.90;;;;;;5032163;28;20104;-78
2021/11/22 02:10:03;;;;;;;12.48;4.30;;;3.30;92.90;;;;;;5031568;28;19996;-77
2021/11/22 02:12:32;;;;;;;9.38;3.83;;;3.30;92.80;;;;;;5015040;28;20032;-79
2021/11/22 02:14:58;;;;;;;12.40;4.93;;;3.30;92.70;;;;;;5032938;28;20033;-78
2021/11/22 02:17:24;;;;;;;14.57;5.53;;;3.30;92.70;;;;;;5032806;28;20063;-78
2021/11/22 02:20:03;;;;;;;14.55;5.35;;;3.30;92.70;;;;;;5032719;28;20449;-78
2021/11/22 02:22:29;;;;;;;14.98;4.85;;;3.20;92.70;;;;;;5032579;28;20467;-78
2021/11/22 02:24:56;;;;;;;14.68;6.10;;;3.30;92.80;;;;;;5032532;28;20384;-78
2021/11/22 02:27:22;;;;;;;16.17;6.45;;;3.20;92.80;;;;;;5032604;28;20022;-78
2021/11/22 02:29:48;;;;;;;18.20;7.13;;;3.30;92.90;;;;;;5031291;28;20025;-78
2021/11/22 02:32:14;;;;;;;13.13;5.07;;;3.20;93.00;;;;;;5031223;28;20057;-77
2021/11/22 02:34:40;;;;;;;13.30;5.65;;;3.30;93.10;;;;;;5032595;28;20029;-78
2021/11/22 02:37:06;;;;;;;;;;;3.30;93.00;;;;;;5031127;28;20033;-77
2021/11/22 02:39:32;;;;;;;19.50;5.53;;;3.30;93.00;;;;;;5032326;28;20321;-77
2021/11/22 02:41:58;;;;;;;12.48;5.45;;;3.30;92.80;;;;;;5031016;28;20037;-78
2021/11/22 02:44:23;;;;;;;15.23;4.85;;;3.30;92.80;;;;;;5014565;28;20388;-78
2021/11/22 02:46:49;;;;;;;12.65;5.25;;;3.20;92.80;;;;;;5032176;28;20036;-76
2021/11/22 02:49:15;;;;;;;12.60;5.18;;;3.20;92.80;;;;;;5014486;28;20053;-77
2021/11/22 02:51:41;;;;;;;14.88;5.43;;;3.20;92.80;;;;;;5014292;28;20064;-77
2021/11/22 02:54:07;;;;;;;;;;;3.10;92.80;;;;;;5032418;28;20065;-78
2021/11/22 02:56:34;;;;;;;12.75;5.18;;;3.20;92.80;;;;;;5032176;28;19940;-77
2021/11/22 02:59:03;;;;;;;18.17;5.55;;;3.10;92.80;;;;;;5030567;28;20492;-77
2021/11/22 03:01:29;;;;;;;12.93;5.60;;;3.10;92.80;;;;;;5030617;28;20033;-78
2021/11/22 03:03:55;;;;;;;12.27;4.93;;;3.10;92.80;;;;;;5030801;28;20025;-76
2021/11/22 03:06:22;;;;;;;11.65;5.25;;;3.10;92.90;;;;;;4997931;28;20476;-77
2021/11/22 03:08:48;;;;;;;11.05;4.70;;;3.00;92.90;;;;;;5031739;28;20083;-77
2021/11/22 03:11:15;;;;;;;17.42;6.20;;;3.10;93.00;;;;;;5030562;28;20025;-78
2021/11/22 03:13:42;;;;;;;13.98;5.70;;;3.00;93.00;;;;;;5030515;28;20026;-77
2021/11/22 03:16:09;;;;;;;12.90;5.72;;;3.00;93.00;;;;;;5030484;28;20392;-77
2021/11/22 03:18:35;;;;;;;12.15;5.28;;;3.00;93.00;;;;;;5030450;28;20443;-77
2021/11/22 03:21:01;;;;;;;16.33;4.95;;;3.00;93.00;;;;;;5030336;28;20076;-77
2021/11/22 03:23:27;;;;;;;;;;;3.00;93.00;;;;;;5030761;28;20029;-77
2021/11/22 03:25:53;;;;;;;17.75;5.22;;;3.00;93.10;;;;;;5031560;28;19916;-77
2021/11/22 03:28:20;;;;;;;18.15;7.22;;;3.00;93.00;;;;;;5031480;28;20021;-77
2021/11/22 03:30:47;;;;;;;21.30;7.65;;;2.90;93.00;;;;;;5030207;28;20041;-76
2021/11/22 03:33:13;;;;;;;11.45;6.50;;;2.90;93.20;;;;;;5030398;28;20507;-77
2021/11/22 03:35:41;;;;;;;19.42;6.28;;;2.90;93.40;;;;;;5030069;28;20488;-77
2021/11/22 03:38:08;;;;;;;13.73;6.60;;;2.90;93.40;;;;;;5031258;28;20025;-78
2021/11/22 03:40:35;;;;;;;17.00;6.25;;;2.90;93.30;;;;;;5030012;28;20025;-77
2021/11/22 03:45:35;;;;;;;15.55;6.50;;;2.90;93.20;;;;;;5031474;28;20052;-77
2021/11/22 03:48:01;;;;;;;15.82;6.78;;;2.90;93.20;;;;;;5031600;28;20435;-76
2021/11/22 03:50:27;;;;;;;14.20;6.05;;;2.90;93.20;;;;;;5031307;28;20063;-77
2021/11/22 03:52:53;;;;;;;16.70;5.57;;;2.90;93.30;;;;;;5031145;28;20427;-77
2021/11/22 03:55:19;;;;;;;16.92;6.65;;;2.90;93.40;;;;;;5031239;28;20092;-77
2021/11/22 03:57:46;;;;;;;19.10;6.07;;;2.90;93.40;;;;;;5013564;28;20026;-77
2021/11/22 04:00:13;;;;;;;18.17;6.43;;;2.90;93.50;;;;;;5029920;28;20049;-76
2021/11/22 04:02:39;;;;;;;13.13;6.10;;;2.90;93.50;;;;;;5013235;28;20124;-78
2021/11/22 04:05:06;;;;;;;15.65;5.63;;;2.90;93.80;;;;;;5031146;28;20021;-77
2021/11/22 04:07:32;;;;;;;13.23;5.32;;;2.90;93.60;;;;;;5013443;28;20037;-77
2021/11/22 04:09:58;;;;;;;17.63;6.55;;;2.90;93.60;;;;;;5031161;28;20029;-76
2021/11/22 04:12:24;;;;;;;14.98;5.35;;;2.80;93.40;;;;;;5031040;28;20506;-77
2021/11/22 04:14:50;;;;;;;22.05;8.45;;;2.80;93.40;;;;;;5031071;28;20030;-77
2021/11/22 04:17:16;;;;;;;16.05;6.97;;;2.70;93.80;;;;;;5029874;28;20311;-77
2021/11/22 04:19:41;;;;;;;15.55;6.30;;;2.70;93.60;;;;;;5031021;28;20026;-77
2021/11/22 04:22:07;;;;;;;16.60;6.05;;;2.60;93.70;;;;;;5029691;28;20103;-77
2021/11/22 04:24:34;;;;;;;17.27;6.28;;;2.60;93.80;;;;;;5029773;28;20032;-77
2021/11/22 04:26:59;;;;;;;;;;;2.60;93.80;;;;;;5031479;28;20080;-76
2021/11/22 04:29:25;;;;;;;11.98;5.90;;;2.60;93.90;;;;;;5030967;28;19909;-77
2021/11/22 04:31:51;;;;;;;12.88;5.57;;;2.60;93.80;;;;;;5013135;28;20103;-77
2021/11/22 04:34:20;;;;;;;12.55;5.85;;;2.60;93.90;;;;;;5013134;28;20041;-77
2021/11/22 04:36:46;;;;;;;10.95;5.40;;;2.60;93.80;;;;;;5029633;28;20056;-77
2021/11/22 04:39:12;;;;;;;17.25;5.72;;;2.60;93.60;;;;;;5030890;28;20025;-77
2021/11/22 04:41:38;;;;;;;12.75;5.03;;;2.60;93.60;;;;;;5029346;28;20033;-77
2021/11/22 04:44:04;;;;;;;13.68;6.03;;;2.50;93.60;;;;;;5029440;28;20044;-77
2021/11/22 04:46:31;;;;;;;10.00;5.20;;;2.50;93.70;;;;;;5013068;28;20125;-77
2021/11/22 04:48:57;;;;;;;13.68;5.95;;;2.40;93.80;;;;;;5029517;28;20428;-78
2021/11/22 04:51:23;;;;;;;12.07;5.20;;;2.50;93.90;;;;;;5029661;28;20060;-77
2021/11/22 04:53:49;;;;;;;17.00;6.13;;;2.50;93.90;;;;;;5029057;28;20400;-77
2021/11/22 04:56:14;;;;;;;13.43;5.45;;;2.50;93.90;;;;;;5030558;28;20017;-76
2021/11/22 04:58:40;;;;;;;15.80;5.97;;;2.50;93.90;;;;;;5029243;28;20391;-78
2021/11/22 05:01:06;;;;;;;11.77;5.10;;;2.50;93.90;;;;;;5033668;28;20056;-77
2021/11/22 05:03:32;;;;;;;10.40;5.07;;;2.50;93.80;;;;;;5032817;28;20033;-76
2021/11/22 05:05:58;;;;;;;16.33;5.85;;;2.50;93.80;;;;;;5032950;28;20041;-78
2021/11/22 05:08:24;;;;;;;11.63;4.68;;;2.50;93.80;;;;;;5032925;28;20489;-77
2021/11/22 05:10:50;;;;;;;21.27;5.85;;;2.50;93.80;;;;;;5034080;28;20033;-77
2021/11/22 05:13:19;;;;;;;13.32;5.38;;;2.50;93.70;;;;;;5034187;28;20033;-77
2021/11/22 05:15:48;;;;;;;15.55;5.35;;;2.50;93.70;;;;;;5033961;28;20021;-77
2021/11/22 05:18:14;;;;;;;10.93;5.45;;;2.50;93.70;;;;;;5033830;28;20025;-77
2021/11/22 05:20:43;;;;;;;13.85;5.15;;;2.50;93.70;;;;;;5032574;28;20036;-77
2021/11/22 05:23:10;;;;;;;19.30;6.72;;;2.50;93.70;;;;;;5033673;28;20025;-77
2021/11/22 05:25:36;;;;;;;13.30;5.40;;;2.50;93.70;;;;;;5032404;28;20033;-78
2021/11/22 05:28:04;;;;;;;10.55;5.18;;;2.50;93.70;;;;;;5032437;28;20447;-78
2021/11/22 05:30:30;;;;;;;10.52;4.60;;;2.50;93.70;;;;;;5033632;28;20079;-77
2021/11/22 05:32:59;;;;;;;16.42;5.38;;;2.50;93.60;;;;;;5032258;28;20026;-77
2021/11/22 05:35:26;;;;;;;12.43;5.57;;;2.50;93.70;;;;;;5033529;28;20053;-78
2021/11/22 05:37:53;;;;;;;12.48;5.53;;;2.50;93.70;;;;;;5032128;28;20068;-76
2021/11/22 05:40:18;;;;;;;13.15;4.93;;;2.50;93.70;;;;;;5033603;28;20030;-76
2021/11/22 05:42:44;;;;;;;11.55;5.03;;;2.50;93.70;;;;;;5032365;28;20358;-78
2021/11/22 05:45:10;;;;;;;13.95;4.90;;;2.50;93.70;;;;;;5015935;28;20036;-77
2021/11/22 05:47:36;;;;;;;9.38;4.43;;;2.50;93.60;;;;;;5032207;28;20029;-76
2021/11/22 05:50:06;;;;;;;14.57;4.82;;;2.40;93.60;;;;;;5033331;28;20028;-77
2021/11/22 05:52:34;;;;;;;13.57;5.60;;;2.30;93.60;;;;;;5031839;28;20447;-77
2021/11/22 05:55:05;;;;;;;14.85;5.93;;;2.30;93.60;;;;;;5033322;28;20194;-77
2021/11/22 05:57:31;;;;;;;13.63;5.40;;;2.20;93.60;;;;;;5031883;28;20048;-77
2021/11/22 05:59:57;;;;;;;10.70;5.35;;;2.20;93.70;;;;;;5031963;28;20069;-77
2021/11/22 06:02:23;;;;;;;10.13;5.35;;;2.20;93.70;;;;;;5031852;28;20065;-77
2021/11/22 06:04:49;;;;;;;13.50;5.90;;;2.20;93.80;;;;;;5033181;28;20033;-76
2021/11/22 06:07:15;;;;;;;12.82;4.75;;;2.20;93.80;;;;;;5031752;28;20036;-78
2021/11/22 06:09:41;;;;;;;12.65;5.45;;;2.20;93.80;;;;;;5015338;28;20396;-78
2021/11/22 06:12:07;;;;;;;13.38;5.18;;;2.20;93.80;;;;;;5014110;28;20033;-78
2021/11/22 06:14:33;;;;;;;13.38;5.93;;;2.20;93.80;;;;;;5015111;28;20144;-77
2021/11/22 06:16:59;;;;;;;12.18;4.78;;;2.20;93.90;;;;;;5031716;28;20033;-76
2021/11/22 06:19:24;;;;;;;11.30;5.80;;;2.20;93.90;;;;;;5032746;28;20030;-76
2021/11/22 06:21:50;;;;;;;14.25;6.47;;;2.20;93.90;;;;;;5031143;28;20502;-78
2021/11/22 06:24:17;;;;;;;11.00;5.25;;;2.20;94.00;;;;;;5031111;28;20106;-77
2021/11/22 06:26:43;;;;;;;16.85;5.88;;;2.20;94.00;;;;;;5014831;28;20037;-78
2021/11/22 06:29:12;;;;;;;14.32;5.72;;;2.30;94.10;;;;;;5032303;28;20496;-77
2021/11/22 06:31:38;;;;;;;13.25;5.05;;;2.30;94.10;;;;;;5031067;28;20037;-77
2021/11/22 06:34:04;;;;;;;12.57;6.35;;;2.30;94.10;;;;;;5031056;28;20033;-77
2021/11/22 06:36:30;;;;;;;12.93;5.13;;;2.30;94.10;;;;;;5031293;28;20531;-78
2021/11/22 06:38:56;;;;;;;16.25;5.95;;;2.40;94.10;;;;;;5031009;28;20140;-78
2021/11/22 06:41:21;;;;;;;11.63;5.82;;;2.40;94.10;;;;;;5014621;28;20037;-78
2021/11/22 06:43:47;;;;;;;14.63;5.45;;;2.30;94.10;;;;;;5032294;28;20387;-77
2021/11/22 06:46:13;;;;;;;16.60;6.25;;;2.30;94.20;;;;;;5030788;28;20025;-78
2021/11/22 06:48:39;;;;;;;;;;;2.30;94.20;;;;;;5032519;28;20029;-78
2021/11/22 06:51:05;;;;;;;13.93;5.57;;;2.30;94.20;;;;;;5032122;28;19962;-78
2021/11/22 06:53:31;;;;;;;10.07;5.03;;;2.30;94.10;;;;;;5030537;28;20025;-77
2021/11/22 06:55:56;;;;;;;15.77;5.55;;;2.30;94.10;;;;;;5030504;28;20033;-78
2021/11/22 06:58:22;;;;;;;18.08;5.32;;;2.30;94.20;;;;;;5030359;28;20079;-77
2021/11/22 07:00:49;;;;;;;9.20;5.03;;;2.30;94.20;;;;;;5030564;28;20056;-77
2021/11/22 07:03:15;;;;;;;13.23;5.28;;;2.30;94.30;;;;;;5014313;28;20462;-78
2021/11/22 07:05:41;;;;;;;13.55;5.20;;;2.30;94.30;;;;;;5031841;28;20153;-77
2021/11/22 07:08:08;;;;;;;11.40;5.65;;;2.30;94.30;;;;;;5031765;28;20399;-78
2021/11/22 07:10:35;;;;;;;18.27;5.60;;;2.30;94.20;;;;;;5014136;28;20057;-77
2021/11/22 07:13:00;;;;;;;15.93;5.88;;;2.30;94.20;;;;;;5030509;28;20118;-77
2021/11/22 07:15:33;;;;;;;15.23;5.28;;;2.30;94.20;;;;;;5013836;28;20073;-77
2021/11/22 07:17:59;;;;;;;12.80;5.90;;;2.30;94.20;;;;;;5031541;28;20120;-78
2021/11/22 07:20:25;;;;;;;13.57;6.15;;;2.30;94.20;;;;;;5031821;28;20029;-78
2021/11/22 07:22:51;;;;;;;15.55;7.18;;;2.20;94.10;;;;;;5031017;28;20044;-78
2021/11/22 07:25:17;;;;;;;17.05;6.15;;;2.20;94.20;;;;;;5031384;28;20476;-78
2021/11/22 07:27:43;;;;;;;15.23;6.30;;;2.20;94.20;;;;;;5014193;28;20087;-78
2021/11/22 07:30:09;;;;;;;11.63;5.63;;;2.20;94.30;;;;;;5029851;28;20029;-77
2021/11/22 07:32:35;;;;;;;15.65;6.15;;;2.20;94.30;;;;;;5013412;28;20041;-78
2021/11/22 07:35:01;;;;;;;18.17;6.70;;;2.20;94.30;;;;;;5030136;28;20037;-78
2021/11/22 07:37:27;;;;;;;14.50;5.68;;;2.20;94.40;;;;;;5030178;28;20034;-78
2021/11/22 07:39:53;;;;;;;18.50;6.78;;;2.20;94.40;;;;;;5030383;28;20030;-77
2021/11/22 07:42:19;;;;;;;12.93;6.38;;;2.10;94.30;;;;;;5029709;28;20048;-78
2021/11/22 07:44:45;;;;;;;15.30;6.07;;;2.10;94.30;;;;;;5031324;28;20036;-78
2021/11/22 07:47:11;;;;;;;14.00;6.47;;;2.10;94.30;;;;;;5029525;28;20492;-78
2021/11/22 07:49:38;;;;;;;18.90;6.70;;;2.10;94.40;;;;;;5029679;28;20193;-78
2021/11/22 07:52:06;;;;;;;15.27;6.68;;;2.10;94.50;;;;;;5030974;28;20029;-77
2021/11/22 07:54:32;;;;;;;14.40;7.05;;;2.10;94.50;;;;;;5031324;28;20025;-78
2021/11/22 07:56:58;;;;;;;16.70;6.68;;;2.10;94.60;;;;;;5029753;28;20388;-78
2021/11/22 07:59:23;;;;;;;15.23;5.90;;;2.10;94.60;;;;;;5029005;28;20053;-78
2021/11/22 08:01:49;;;;;;;13.13;6.00;;;2.10;94.60;;;;;;5031036;28;20387;-77
2021/11/22 08:04:17;;;;;;;17.23;6.45;;;2.10;94.60;;;;;;5031022;28;20022;-77
2021/11/22 08:06:47;;;;;;;14.00;6.18;;;2.10;94.60;;;;;;5029466;28;20037;-78
2021/11/22 08:09:26;;;;;;;14.52;6.70;;;2.20;94.80;;;;;;5013981;28;20175;-78
2021/11/22 08:14:37;;;;;;;14.05;6.28;;;2.20;94.60;;;;;;5030752;28;20040;-77
2021/11/22 08:17:04;;;;;;;18.00;6.72;;;2.20;94.60;;;;;;5030647;28;20476;-77
2021/11/22 08:19:30;;;;;;;19.40;7.93;;;2.20;94.60;;;;;;5030593;28;20037;-78
2021/11/22 08:21:57;;;;;;;16.35;7.10;;;2.30;94.60;;;;;;5012829;28;20029;-77
2021/11/22 08:24:26;;;;;;;23.05;8.55;;;2.30;94.90;;;;;;5030665;28;20105;-76
2021/11/22 08:26:52;;;;;;;16.63;6.63;;;2.30;94.70;;;;;;5029269;28;20037;-77
2021/11/22 08:29:18;;;;;;;22.40;7.65;;;2.30;94.70;;;;;;5012750;28;20087;-78
2021/11/22 08:31:44;;;;;;;28.88;11.23;;;2.40;94.70;;;;;;5030156;28;20022;-77
2021/11/22 08:34:10;;;;;;;13.75;6.57;;;2.40;94.70;;;;;;5013721;28;20096;-78
2021/11/22 08:36:36;;;;;;;15.57;7.03;;;2.40;94.70;;;;;;5034342;28;20037;-78
2021/11/22 08:39:03;;;;;;;15.35;5.95;;;2.40;94.70;;;;;;5033029;28;20029;-76
2021/11/22 08:41:29;;;;;;;14.75;5.78;;;2.50;94.70;;;;;;5034055;28;20033;-78
2021/11/22 08:43:55;;;;;;;14.00;5.50;;;2.50;94.70;;;;;;5032998;28;20025;-78
2021/11/22 08:46:20;;;;;;;16.48;5.80;;;2.50;94.70;;;;;;5016520;28;20037;-77
2021/11/22 08:48:46;;;;;;;15.43;5.80;;;2.60;94.80;;;;;;5016357;28;20025;-76
2021/11/22 08:51:12;;;;;;;13.23;5.72;;;2.60;94.80;;;;;;5033985;28;20029;-76
2021/11/22 08:53:38;;;;;;;14.40;5.38;;;2.60;94.90;;;;;;5033497;28;20021;-77
2021/11/22 08:56:04;;;;;;;16.40;7.25;;;2.70;95.00;;;;;;5016193;28;20124;-78
2021/11/22 08:58:29;;;;;;;11.80;5.00;;;2.90;95.70;;;;;;5016330;28;20040;-78
2021/11/22 09:00:56;;;;;;;10.38;4.18;;;3.50;97.10;;;;;;5042809;28;20140;-79
2021/11/22 09:03:21;;;;;;;10.88;3.88;;;4.30;97.90;;;;;;5045393;28;20437;-77
2021/11/22 09:05:47;;;;;;;11.93;4.13;;;5.30;98.20;;;;;;5043749;28;20037;-76
2021/11/22 09:08:13;;;;;;;14.05;4.30;;;6.30;98.20;;;;;;5043161;28;20475;-76
2021/11/22 09:10:39;;;;;;;10.48;3.90;;;7.10;97.70;;;;;;5046132;28;20013;-79
2021/11/22 09:13:05;;;;;;;13.15;4.75;;;7.90;97.00;;;;;;5034575;28;20396;-80
2021/11/22 09:15:32;;;;;;;13.95;5.30;;;8.50;96.10;;;;;;5046417;28;20025;-78
2021/11/22 09:17:58;;;;;;;9.60;4.72;;;8.80;95.00;;;;;;5053932;28;20040;-78
2021/11/22 09:20:25;;;;;;;;;;;8.70;94.40;;;;;;5055617;28;20037;-77
2021/11/22 09:23:01;;;;;;;15.68;6.07;;;8.90;94.50;;;;;;5053277;28;19915;-79
2021/11/22 09:25:27;;;;;;;16.08;5.45;;;9.00;94.40;;;;;;5054931;28;20037;-78
2021/11/22 09:27:53;;;;;;;14.85;6.63;;;8.90;93.80;;;;;;5053080;28;20100;-78
2021/11/22 09:30:20;;;;;;;;;;;8.70;93.10;;;;;;5036812;28;20024;-78
2021/11/22 09:32:46;;;;;;;12.23;4.30;;;8.70;93.20;;;;;;5052695;28;20015;-78
2021/11/22 09:35:12;;;;;;;;;;;8.80;93.50;;;;;;5052886;28;20029;-78
2021/11/22 09:37:38;;;;;;;12.55;4.70;;;9.20;93.30;;;;;;5051905;28;20245;-78
2021/11/22 09:40:06;;;;;;;8.20;3.90;;;9.60;93.60;;;;;;5035649;28;20112;-78
2021/11/22 09:42:32;;;;;;;10.68;4.38;;;10.10;93.50;;;;;;5052891;28;20139;-78
2021/11/22 09:44:58;;;;;;;;;;;10.60;92.90;;;;;;5053648;28;20132;-78
2021/11/22 09:47:23;;;;;;;12.27;4.35;;;10.90;92.50;;;;;;5053697;28;19947;-78
2021/11/22 09:49:54;;;;;;;10.40;5.13;;;11.20;92.10;;;;;;5054143;28;20032;-79
2021/11/22 09:52:24;;;;;;;10.30;5.30;;;11.40;91.30;;;;;;5053743;28;20510;-78
2021/11/22 09:54:50;;;;;;;12.25;6.15;;;11.60;91.00;;;;;;5053601;28;20503;-75
2021/11/22 09:57:16;;;;;;;12.55;4.38;;;11.80;91.20;;;;;;5036334;28;20399;-79
2021/11/22 09:59:42;;;;;;;13.73;4.93;;;12.10;91.10;;;;;;5036087;28;20052;-77
2021/11/22 10:02:08;;;;;;;10.88;5.03;;;12.30;91.30;;;;;;5054844;28;20095;-79
2021/11/22 10:04:34;;;;;;;10.65;4.95;;;12.70;91.10;;;;;;5047164;28;20021;-78
2021/11/22 10:07:01;;;;;;;7.55;4.20;;;13.10;90.70;;;;;;5044339;28;20044;-78
2021/11/22 10:09:33;;;;;;;10.10;4.05;;;13.50;89.90;;;;;;5035124;28;20030;-78
2021/11/22 10:12:35;;;;;;;24.77;10.93;;;13.80;87.90;;;;;;5037241;28;20021;-79
2021/11/22 10:15:02;;;;;;;12.45;4.32;;;13.90;86.20;;;;;;5011100;28;20034;-77
2021/11/22 10:17:35;;;;;;;11.10;3.60;;;14.10;86.10;;;;;;5043705;28;20033;-78
2021/11/22 10:20:07;;;;;;;9.02;4.30;;;14.30;84.90;;;;;;5050178;28;20025;-79
2021/11/22 10:23:03;;;;;;;8.82;4.00;;;14.60;84.60;;;;;;5038821;28;20504;-78
2021/11/22 10:25:38;;;;;;;10.15;4.78;;;14.90;83.40;;;;;;5039790;28;20033;-79
2021/11/22 10:28:16;;;;;;;10.60;4.72;;;15.00;81.60;;;;;;5046091;28;20398;-73
2021/11/22 10:30:58;;;;;;;10.20;4.70;;;14.90;79.90;;;;;;5044067;28;20029;-79
2021/11/22 10:33:30;;;;;;;9.73;4.70;;;14.90;79.40;;;;;;5047152;28;20471;-77
2021/11/22 10:36:00;;;;;;;9.73;4.30;;;15.00;79.50;;;;;;5045388;28;20049;-79
2021/11/22 10:38:27;;;;;;;13.30;4.43;;;15.20;79.90;;;;;;5041257;28;20021;-77
2021/11/22 10:41:06;;;;;;;9.98;5.15;;;15.40;79.40;;;;;;5041960;28;20048;-79
2021/11/22 10:43:42;;;;;;;11.82;4.80;;;15.60;78.20;;;;;;5040032;28;20044;-78
2021/11/22 10:46:12;;;;;;;10.02;5.13;;;15.80;76.80;;;;;;5046722;28;20040;-79
2021/11/22 10:48:39;;;;;;;11.82;5.18;;;15.80;76.10;;;;;;5036927;28;20033;-80
2021/11/22 10:51:15;;;;;;;10.82;4.70;;;15.80;76.00;;;;;;5015184;28;20047;-78
2021/11/22 10:53:47;;;;;;;11.63;4.63;;;15.90;75.30;;;;;;5034270;28;20414;-78
2021/11/22 10:56:28;;;;;;;12.57;4.55;;;16.10;74.90;;;;;;5041272;28;20341;-78
2021/11/22 10:58:57;;;;;;;13.52;4.53;;;16.10;73.80;;;;;;5044732;28;20079;-80
2021/11/22 11:01:29;;;;;;;9.60;3.95;;;16.20;74.30;;;;;;5044624;28;20132;-78
2021/11/22 11:04:06;;;;;;;14.10;4.70;;;16.40;74.00;;;;;;5037872;28;20057;-80
2021/11/22 11:06:51;;;;;;;11.18;5.10;;;16.60;73.40;;;;;;5046436;28;20028;-82
2021/11/22 11:09:21;;;;;;;13.60;5.10;;;16.70;73.10;;;;;;5039096;28;20022;-76
2021/11/22 11:11:51;;;;;;;10.10;4.05;;;16.90;73.10;;;;;;5033020;28;20032;-79
2021/11/22 11:14:17;;;;;;;8.70;4.32;;;17.00;72.00;;;;;;5034934;28;20168;-79
2021/11/22 11:16:45;;;;;;;10.55;4.00;;;16.90;70.70;;;;;;5046512;28;20021;-80
2021/11/22 11:19:14;;;;;;;10.90;4.25;;;16.80;70.60;;;;;;5043502;28;20163;-79
2021/11/22 11:21:46;;;;;;;12.45;4.22;;;16.90;70.80;;;;;;5044925;28;20028;-80
2021/11/22 11:24:13;;;;;;;6.75;3.50;;;17.00;70.70;;;;;;5039819;28;20025;-79
2021/11/22 11:26:41;;;;;;;14.02;5.40;;;17.10;69.90;;;;;;5044307;28;20020;-78
2021/11/22 11:29:07;;;;;;;15.23;5.35;;;17.10;69.40;;;;;;5051494;28;20025;-76
2021/11/22 11:31:35;;;;;;;11.43;5.05;;;17.20;69.50;;;;;;5020208;28;20471;-77
2021/11/22 11:34:05;;;;;;;10.32;4.40;;;17.20;69.20;;;;;;5052390;28;20029;-77
2021/11/22 11:36:42;;;;;;;9.52;4.40;;;17.30;68.70;;;;;;5043398;28;20025;-77
2021/11/22 11:39:25;;;;;;;11.55;4.45;;;17.40;68.30;;;;;;5036232;28;20414;-75
2021/11/22 11:42:12;;;;;;;12.23;5.25;;;17.50;68.30;;;;;;5047966;28;20496;-78
2021/11/22 11:45:25;;;;;;;14.65;5.68;;;17.50;68.10;;;;;;5041430;28;20025;-78
2021/11/22 11:48:12;;;;;;;11.48;4.53;;;17.60;68.00;;;;;;5018523;28;20025;-77
2021/11/22 11:50:41;;;;;;;;;;;17.60;67.80;;;;;;5050193;28;20056;-77
2021/11/22 11:53:09;;;;;;;13.75;4.80;;;17.60;68.80;;;;;;5045919;28;19950;-74
2021/11/22 11:55:35;;;;;;;10.73;4.75;;;17.60;68.70;;;;;;5033484;28;20026;-79
2021/11/22 11:58:20;;;;;;;11.00;4.55;;;17.60;68.40;;;;;;5022474;28;20052;-78
2021/11/22 12:01:11;;;;;;;11.27;4.75;;;17.60;67.40;;;;;;5032210;28;20045;-76
2021/11/22 12:04:04;;;;;;;9.68;3.92;;;17.40;66.60;;;;;;5030877;28;20048;-77
2021/11/22 12:07:01;;;;;;;11.80;4.85;;;17.30;66.90;;;;;;5031410;28;20018;-77
2021/11/22 12:09:34;;;;;;;11.85;4.90;;;17.10;66.40;;;;;;5032633;28;20028;-77
2021/11/22 12:12:32;;;;;;;11.13;4.60;;;17.00;67.20;;;;;;5036652;28;20099;-78
2021/11/22 12:15:13;;;;;;;15.55;6.25;;;17.00;66.90;;;;;;5047482;28;20490;-77
2021/11/22 12:17:41;;;;;;;10.35;4.13;;;17.00;66.80;;;;;;5049677;28;20029;-77
2021/11/22 12:20:28;;;;;;;12.25;6.38;;;16.90;66.40;;;;;;5042631;28;20037;-78
2021/11/22 12:22:55;;;;;;;;;;;16.80;66.10;;;;;;5037912;28;20444;-77
2021/11/22 12:28:10;;;;;;;6.93;3.97;;;15.90;65.50;;;;;;5039835;28;20112;-79
2021/11/22 12:30:40;;;;;;;10.38;4.07;;;15.20;64.90;;;;;;5051195;28;20028;-77
2021/11/22 12:33:23;;;;;;;12.00;4.68;;;14.50;65.10;;;;;;5041961;28;20464;-78
2021/11/22 12:35:51;;;;;;;9.85;4.20;;;13.80;65.90;;;;;;5039715;28;20031;-77
2021/11/22 12:38:26;;;;;;;17.20;6.78;;;13.30;66.60;;;;;;5050026;28;20092;-77
2021/11/22 12:40:55;;;;;;;12.88;4.25;;;12.90;67.30;;;;;;5055294;28;20028;-76
2021/11/22 12:43:47;;;;;;;10.20;4.28;;;12.50;67.60;;;;;;5051435;28;20053;-77
2021/11/22 12:46:19;;;;;;;11.40;3.92;;;12.10;68.30;;;;;;5050232;28;20021;-78
2021/11/22 12:48:47;;;;;;;17.10;4.70;;;11.80;68.50;;;;;;5052520;28;20093;-78
2021/11/22 12:51:19;;;;;;;10.98;3.65;;;11.60;69.10;;;;;;5042068;28;20075;-74
2021/11/22 12:54:14;;;;;;;10.60;4.20;;;11.40;69.70;;;;;;5037050;28;20030;-78
2021/11/22 12:56:41;;;;;;;13.35;5.38;;;11.10;70.20;;;;;;5035698;28;20128;-78
2021/11/22 12:59:16;;;;;;;10.82;3.75;;;11.00;70.30;;;;;;5054191;28;20032;-77
2021/11/22 13:01:42;;;;;;;12.90;3.67;;;10.80;70.80;;;;;;5053143;28;20484;-77